Time;durP1;ratioP1;P1;durP2;ratioP2;P2;SDS_P1;SDS_P2;PMS_P1;PMS_P2;Temp;Humidity;BMP_temperature;BMP_pressure;BME280_temperature;BME280_humidity;BME280_pressure;Samples;Min_cycle;Max_cycle;Signal;HPM_P1;HPM_P2
2022/08/09 00:00:46;;;;;;;2.75;0.50;;;21.30;75.00;;;;;;5053237;28;20056;-75
2022/08/09 00:03:12;;;;;;;3.50;0.50;;;21.20;75.00;;;;;;5053526;28;20472;-75
2022/08/09 00:05:38;;;;;;;3.13;0.40;;;21.30;75.00;;;;;;5053185;28;20025;-76
2022/08/09 00:08:05;;;;;;;3.53;0.50;;;21.30;74.80;;;;;;5053204;28;20047;-76
2022/08/09 00:10:31;;;;;;;1.40;0.40;;;21.40;74.70;;;;;;5053267;28;20381;-75
2022/08/09 00:12:56;;;;;;;2.83;0.63;;;21.40;74.40;;;;;;5053218;28;20029;-76
2022/08/09 00:15:22;;;;;;;1.50;0.50;;;21.50;74.60;;;;;;5053140;28;20029;-75
2022/08/09 00:17:48;;;;;;;6.93;1.10;;;21.30;75.10;;;;;;5053197;28;20021;-75
2022/08/09 00:20:13;;;;;;;3.45;1.15;;;21.10;75.60;;;;;;5053339;28;20021;-75
2022/08/09 00:22:39;;;;;;;3.28;0.80;;;21.00;76.00;;;;;;5053367;28;20115;-75
2022/08/09 00:25:05;;;;;;;4.95;0.52;;;21.00;75.80;;;;;;5052676;28;20056;-75
2022/08/09 00:27:31;;;;;;;3.70;1.13;;;21.10;75.90;;;;;;5053151;28;20040;-75
2022/08/09 00:29:57;;;;;;;3.53;0.95;;;21.10;75.80;;;;;;5053327;28;20025;-76
2022/08/09 00:32:22;;;;;;;1.77;0.70;;;21.20;75.70;;;;;;5053002;28;20487;-75
2022/08/09 00:34:48;;;;;;;1.85;0.60;;;21.20;75.40;;;;;;5052922;28;20025;-75
2022/08/09 00:37:14;;;;;;;6.28;1.42;;;21.20;75.40;;;;;;5052965;28;20487;-76
2022/08/09 00:39:39;;;;;;;3.83;0.60;;;21.20;75.40;;;;;;5052855;28;20029;-75
2022/08/09 00:42:05;;;;;;;15.15;7.72;;;21.20;75.40;;;;;;5053227;28;20045;-75
2022/08/09 00:44:31;;;;;;;10.95;5.18;;;21.20;75.30;;;;;;5052832;28;20028;-75
2022/08/09 00:46:57;;;;;;;49.30;24.42;;;21.20;75.40;;;;;;5052833;28;20041;-75
2022/08/09 00:49:22;;;;;;;20.83;11.13;;;21.10;75.50;;;;;;5052938;28;20029;-75
2022/08/09 00:51:48;;;;;;;7.50;2.95;;;21.10;75.80;;;;;;5053104;28;20460;-75
2022/08/09 00:54:14;;;;;;;3.25;1.05;;;21.00;76.20;;;;;;5052732;28;20112;-75
2022/08/09 00:56:40;;;;;;;2.38;0.75;;;20.90;76.40;;;;;;5053088;28;20028;-75
2022/08/09 00:59:06;;;;;;;2.20;1.10;;;20.90;76.30;;;;;;5052567;28;20087;-75
2022/08/09 01:01:36;;;;;;;4.40;2.10;;;20.90;76.20;;;;;;5056042;28;20025;-75
2022/08/09 01:04:19;;;;;;;4.60;1.50;;;20.90;76.70;;;;;;5056778;28;20025;-75
2022/08/09 01:06:59;;;;;;;6.57;2.17;;;20.90;76.60;;;;;;5056855;28;20433;-75
2022/08/09 01:10:09;;;;;;;4.18;1.90;;;20.90;76.50;;;;;;5056376;28;20076;-74
2022/08/09 01:12:54;;;;;;;18.52;8.75;;;20.90;76.40;;;;;;5034431;28;20021;-74
2022/08/09 01:15:24;;;;;;;9.48;4.78;;;21.10;76.10;;;;;;5034362;28;20037;-75
2022/08/09 01:18:03;;;;;;;5.13;2.70;;;21.10;76.00;;;;;;5049124;28;20033;-75
2022/08/09 01:20:50;;;;;;;5.30;2.25;;;21.10;76.10;;;;;;5055942;28;20029;-76
2022/08/09 01:23:23;;;;;;;4.18;1.55;;;21.10;76.10;;;;;;5056039;28;20464;-74
2022/08/09 01:26:12;;;;;;;3.85;1.10;;;21.00;76.30;;;;;;5056123;28;20041;-75
2022/08/09 01:28:43;;;;;;;4.78;2.10;;;21.00;76.50;;;;;;5056048;28;20064;-75
2022/08/09 01:31:15;;;;;;;3.28;1.25;;;20.90;76.40;;;;;;5056015;28;20373;-75
2022/08/09 01:33:45;;;;;;;4.18;1.20;;;21.00;76.40;;;;;;5056190;28;20031;-75
2022/08/09 01:36:13;;;;;;;6.57;1.55;;;20.90;76.40;;;;;;5056291;28;20033;-75
2022/08/09 01:38:46;;;;;;;3.72;1.45;;;21.00;76.60;;;;;;5056206;28;20066;-75
2022/08/09 01:41:15;;;;;;;5.57;2.22;;;20.90;76.90;;;;;;5055803;28;20477;-75
2022/08/09 01:43:45;;;;;;;4.70;1.55;;;20.80;76.90;;;;;;5055537;28;20124;-75
2022/08/09 01:46:13;;;;;;;6.70;1.52;;;20.80;77.00;;;;;;5056011;28;20021;-74
2022/08/09 01:48:41;;;;;;;3.55;1.98;;;20.80;77.00;;;;;;5055597;28;20129;-75
2022/08/09 01:51:08;;;;;;;3.80;1.50;;;20.70;77.60;;;;;;5055821;28;20029;-75
2022/08/09 01:53:35;;;;;;;7.55;2.25;;;20.50;78.10;;;;;;5055689;28;20037;-75
2022/08/09 01:56:02;;;;;;;3.83;1.95;;;20.50;78.70;;;;;;5055647;28;20024;-74
2022/08/09 01:58:30;;;;;;;4.03;1.67;;;20.20;79.30;;;;;;5055802;28;20033;-74
2022/08/09 02:00:57;;;;;;;5.15;1.67;;;20.10;79.80;;;;;;5055764;28;20021;-74
2022/08/09 02:03:24;;;;;;;5.38;1.80;;;20.10;80.10;;;;;;5055539;28;20096;-75
2022/08/09 02:05:53;;;;;;;2.65;1.45;;;20.00;80.00;;;;;;5055531;28;20017;-75
2022/08/09 02:08:20;;;;;;;4.22;2.05;;;20.10;79.90;;;;;;5055264;28;20480;-74
2022/08/09 02:10:49;;;;;;;5.95;1.50;;;20.10;79.90;;;;;;5055360;28;20100;-74
2022/08/09 02:13:16;;;;;;;6.28;1.60;;;20.20;79.80;;;;;;5055548;28;20029;-74
2022/08/09 02:15:46;;;;;;;3.70;1.73;;;20.20;79.70;;;;;;5055332;28;20357;-74
2022/08/09 02:18:14;;;;;;;4.45;1.63;;;20.30;79.60;;;;;;5055393;28;20033;-74
2022/08/09 02:20:43;;;;;;;3.08;1.10;;;20.30;79.50;;;;;;5055222;28;20021;-74
2022/08/09 02:23:19;;;;;;;5.47;1.73;;;20.30;79.30;;;;;;5054948;28;20035;-74
2022/08/09 02:25:47;;;;;;;3.78;1.10;;;20.40;79.20;;;;;;5055113;28;20100;-74
2022/08/09 02:28:23;;;;;;;4.63;1.48;;;20.40;79.00;;;;;;5054864;28;20038;-75
2022/08/09 02:31:08;;;;;;;3.50;1.10;;;20.50;78.90;;;;;;5055078;28;20035;-74
2022/08/09 02:33:38;;;;;;;1.95;1.27;;;20.40;78.70;;;;;;5054719;28;20395;-75
2022/08/09 02:36:08;;;;;;;2.08;1.02;;;20.40;79.30;;;;;;5055138;28;20108;-74
2022/08/09 02:38:41;;;;;;;4.40;1.55;;;20.50;78.80;;;;;;5055000;28;20425;-75
2022/08/09 02:41:12;;;;;;;4.50;1.90;;;20.50;78.80;;;;;;5055062;28;20032;-75
2022/08/09 02:43:40;;;;;;;2.35;1.48;;;20.40;78.80;;;;;;5054563;28;20028;-74
2022/08/09 02:46:09;;;;;;;4.18;1.75;;;20.50;78.90;;;;;;5054678;28;20043;-75
2022/08/09 02:48:36;;;;;;;3.72;1.50;;;20.40;78.90;;;;;;5054435;28;20536;-75
2022/08/09 02:51:06;;;;;;;3.42;1.58;;;20.40;78.90;;;;;;5054749;28;20112;-75
2022/08/09 02:53:43;;;;;;;4.35;2.05;;;20.40;78.90;;;;;;5054550;28;20100;-75
2022/08/09 02:56:10;;;;;;;3.88;1.70;;;20.40;79.00;;;;;;5054473;28;20025;-75
2022/08/09 02:58:38;;;;;;;3.08;1.30;;;20.40;78.90;;;;;;5054340;28;20021;-75
2022/08/09 03:01:07;;;;;;;4.53;2.28;;;20.40;79.10;;;;;;5054702;28;20029;-75
2022/08/09 03:03:34;;;;;;;2.45;1.65;;;20.40;79.40;;;;;;5054475;28;20029;-75
2022/08/09 03:06:01;;;;;;;2.92;1.40;;;20.40;79.40;;;;;;5054161;28;20067;-75
2022/08/09 03:08:27;;;;;;;3.58;1.90;;;20.30;79.60;;;;;;5054154;28;20102;-75
2022/08/09 03:10:54;;;;;;;2.72;1.40;;;20.30;79.60;;;;;;5054073;28;20484;-75
2022/08/09 03:13:21;;;;;;;2.88;1.77;;;20.40;79.50;;;;;;5054173;28;20037;-75
2022/08/09 03:15:48;;;;;;;2.45;1.20;;;20.40;79.30;;;;;;5053800;28;20065;-75
2022/08/09 03:18:14;;;;;;;3.75;2.20;;;20.40;79.20;;;;;;5053980;28;20477;-75
2022/08/09 03:20:42;;;;;;;4.18;2.30;;;20.40;79.40;;;;;;5054157;28;20028;-75
2022/08/09 03:23:09;;;;;;;3.28;2.10;;;20.40;79.50;;;;;;5053048;28;20039;-74
2022/08/09 03:25:37;;;;;;;4.20;2.28;;;20.40;79.50;;;;;;5053864;28;20041;-75
2022/08/09 03:28:04;;;;;;;4.32;2.05;;;20.40;79.60;;;;;;5053772;28;20033;-75
2022/08/09 03:30:30;;;;;;;5.18;2.10;;;20.40;79.60;;;;;;5054099;28;20109;-75
2022/08/09 03:32:59;;;;;;;2.50;1.40;;;20.40;79.60;;;;;;5053885;28;20036;-74
2022/08/09 03:35:25;;;;;;;3.50;1.58;;;20.40;79.60;;;;;;5053710;28;20079;-74
2022/08/09 03:37:51;;;;;;;5.60;2.58;;;20.40;79.60;;;;;;5053534;28;20025;-75
2022/08/09 03:40:17;;;;;;;6.55;2.88;;;20.30;79.70;;;;;;5053577;28;20049;-75
2022/08/09 03:42:43;;;;;;;5.38;3.55;;;20.30;79.90;;;;;;5053894;28;20056;-75
2022/08/09 03:45:09;;;;;;;3.92;3.08;;;20.20;80.20;;;;;;5053760;28;20032;-75
2022/08/09 03:47:35;;;;;;;5.28;2.45;;;20.00;81.20;;;;;;5053684;28;20025;-75
2022/08/09 03:50:04;;;;;;;3.65;2.42;;;20.00;80.90;;;;;;5053779;28;20032;-75
2022/08/09 03:52:30;;;;;;;6.35;3.97;;;20.00;81.00;;;;;;5053277;28;20024;-75
2022/08/09 03:55:01;;;;;;;7.75;3.70;;;20.00;81.00;;;;;;5053340;28;20060;-74
2022/08/09 03:57:26;;;;;;;2.70;2.45;;;19.90;81.40;;;;;;5053668;28;20449;-75
2022/08/09 03:59:52;;;;;;;6.28;4.10;;;19.90;81.60;;;;;;5053344;28;20057;-74
2022/08/09 04:02:19;;;;;;;5.22;3.38;;;19.80;81.70;;;;;;5053337;28;20052;-74
2022/08/09 04:04:45;;;;;;;4.60;2.80;;;19.80;82.00;;;;;;5053543;28;20426;-74
2022/08/09 04:07:10;;;;;;;5.45;2.90;;;19.80;82.00;;;;;;5053141;28;20021;-75
2022/08/09 04:09:37;;;;;;;4.15;2.50;;;19.90;82.00;;;;;;5053128;28;20024;-74
2022/08/09 04:12:08;;;;;;;5.05;2.70;;;19.90;81.80;;;;;;5053198;28;20040;-74
2022/08/09 04:14:34;;;;;;;3.60;2.17;;;20.00;81.60;;;;;;5052976;28;20483;-75
2022/08/09 04:16:59;;;;;;;6.18;3.53;;;20.00;81.60;;;;;;5053371;28;20110;-75
2022/08/09 04:19:25;;;;;;;4.45;3.70;;;20.00;81.70;;;;;;5053117;28;20027;-75
2022/08/09 04:21:51;;;;;;;3.38;2.25;;;19.80;81.90;;;;;;5053351;28;20029;-75
2022/08/09 04:24:17;;;;;;;4.20;3.10;;;19.80;82.10;;;;;;5053017;28;20604;-74
2022/08/09 04:26:42;;;;;;;4.32;3.13;;;19.90;82.10;;;;;;5053059;28;20480;-74
2022/08/09 04:29:08;;;;;;;3.75;2.45;;;19.90;82.20;;;;;;5052977;28;20143;-75
2022/08/09 04:31:34;;;;;;;5.30;2.53;;;19.90;82.20;;;;;;5053078;28;20472;-74
2022/08/09 04:33:59;;;;;;;4.70;3.53;;;19.80;82.20;;;;;;5052998;28;20060;-74
2022/08/09 04:36:27;;;;;;;4.97;3.28;;;19.80;82.40;;;;;;5055940;28;20017;-74
2022/08/09 04:38:54;;;;;;;7.78;4.53;;;19.80;82.50;;;;;;5056736;28;20055;-74
2022/08/09 04:41:21;;;;;;;6.70;4.47;;;19.70;82.70;;;;;;5057231;28;20082;-74
2022/08/09 04:43:47;;;;;;;9.30;4.82;;;19.60;83.10;;;;;;5056936;28;20029;-74
2022/08/09 04:46:12;;;;;;;7.22;4.32;;;19.50;83.80;;;;;;5057108;28;20079;-74
2022/08/09 04:48:38;;;;;;;5.18;2.65;;;19.30;84.50;;;;;;5057015;28;20029;-74
2022/08/09 04:51:03;;;;;;;5.82;3.70;;;19.30;84.80;;;;;;5056746;28;20025;-75
2022/08/09 04:53:29;;;;;;;8.90;4.63;;;19.40;84.60;;;;;;5056419;28;20063;-75
2022/08/09 04:55:55;;;;;;;7.38;4.57;;;19.40;84.60;;;;;;5056688;28;20113;-75
2022/08/09 04:58:20;;;;;;;8.63;5.53;;;19.30;84.90;;;;;;5056805;28;20033;-74
2022/08/09 05:00:46;;;;;;;5.25;3.15;;;19.20;85.60;;;;;;5056668;28;20465;-75
2022/08/09 05:03:12;;;;;;;8.05;4.95;;;19.10;85.80;;;;;;5056814;28;20432;-74
2022/08/09 05:05:37;;;;;;;5.07;3.67;;;19.20;85.90;;;;;;5056392;28;20036;-74
2022/08/09 05:08:03;;;;;;;3.85;2.58;;;19.20;86.00;;;;;;5056401;28;20037;-75
2022/08/09 05:10:29;;;;;;;5.10;3.97;;;19.20;85.90;;;;;;5056491;28;20036;-74
2022/08/09 05:12:54;;;;;;;6.45;4.03;;;19.30;85.60;;;;;;5056607;28;20036;-74
2022/08/09 05:15:20;;;;;;;8.85;5.07;;;19.30;85.50;;;;;;5056411;28;20127;-74
2022/08/09 05:17:46;;;;;;;6.00;4.75;;;19.20;86.20;;;;;;5056353;28;20472;-74
2022/08/09 05:20:11;;;;;;;5.68;4.13;;;19.10;86.80;;;;;;5056238;28;20029;-74
2022/08/09 05:22:37;;;;;;;8.02;5.07;;;19.00;87.70;;;;;;5056353;28;20029;-74
2022/08/09 05:25:04;;;;;;;6.45;4.07;;;19.00;87.30;;;;;;5055990;28;20049;-74
2022/08/09 05:27:30;;;;;;;7.88;4.93;;;19.00;87.30;;;;;;5056047;28;20534;-75
2022/08/09 05:29:55;;;;;;;3.00;2.55;;;19.00;87.50;;;;;;5055919;28;20033;-75
2022/08/09 05:32:22;;;;;;;8.82;5.05;;;19.10;87.50;;;;;;5055730;28;20033;-75
2022/08/09 05:34:47;;;;;;;5.15;4.28;;;19.20;87.50;;;;;;5055594;28;20488;-75
2022/08/09 05:37:14;;;;;;;8.35;4.78;;;19.10;87.80;;;;;;5056094;28;20025;-75
2022/08/09 05:39:39;;;;;;;8.13;4.90;;;19.10;88.30;;;;;;5055969;28;20125;-75
2022/08/09 05:42:05;;;;;;;6.20;3.58;;;19.00;88.60;;;;;;5055762;28;20472;-75
2022/08/09 05:44:31;;;;;;;5.63;3.67;;;19.00;88.80;;;;;;5055806;28;20059;-75
2022/08/09 05:46:57;;;;;;;5.18;3.90;;;19.10;88.60;;;;;;5055043;28;20021;-75
2022/08/09 05:49:22;;;;;;;6.15;4.00;;;19.10;88.70;;;;;;5055519;28;20037;-75
2022/08/09 05:51:48;;;;;;;5.25;2.70;;;19.10;88.80;;;;;;5055660;28;20049;-75
2022/08/09 05:54:16;;;;;;;8.68;4.40;;;19.10;89.00;;;;;;5055770;28;20029;-75
2022/08/09 05:56:42;;;;;;;6.57;4.40;;;19.10;89.10;;;;;;5055766;28;20021;-75
2022/08/09 05:59:08;;;;;;;6.93;4.47;;;19.20;89.20;;;;;;5055258;28;20028;-74
2022/08/09 06:01:33;;;;;;;5.30;3.97;;;19.20;89.40;;;;;;5055334;28;20021;-75
2022/08/09 06:03:59;;;;;;;7.35;5.70;;;19.20;89.30;;;;;;5055300;28;20032;-75
2022/08/09 06:06:24;;;;;;;8.18;4.90;;;19.20;89.60;;;;;;5055596;28;20048;-75
2022/08/09 06:08:51;;;;;;;8.02;4.50;;;19.10;90.00;;;;;;5055084;28;20032;-75
2022/08/09 06:11:16;;;;;;;6.85;4.13;;;19.10;90.00;;;;;;5055033;28;20033;-75
2022/08/09 06:13:42;;;;;;;5.65;3.15;;;19.20;90.10;;;;;;5055266;28;20357;-75
2022/08/09 06:16:09;;;;;;;6.60;4.22;;;19.20;90.00;;;;;;5055200;28;20044;-75
2022/08/09 06:18:36;;;;;;;7.05;4.13;;;19.30;89.90;;;;;;5055041;28;20540;-75
2022/08/09 06:21:02;;;;;;;6.18;3.97;;;19.40;90.00;;;;;;5055092;28;20060;-75
2022/08/09 06:23:30;;;;;;;8.07;4.00;;;19.40;90.10;;;;;;5054800;28;20041;-75
2022/08/09 06:25:56;;;;;;;10.43;4.20;;;19.40;90.20;;;;;;5054619;28;20033;-75
2022/08/09 06:28:21;;;;;;;7.20;3.58;;;19.40;90.30;;;;;;5055126;28;20059;-75
2022/08/09 06:30:47;;;;;;;7.18;3.35;;;19.50;90.00;;;;;;5055224;28;20025;-75
2022/08/09 06:33:13;;;;;;;8.48;3.88;;;19.50;90.00;;;;;;5054623;28;20520;-75
2022/08/09 06:35:39;;;;;;;7.78;3.78;;;19.60;90.00;;;;;;5054594;28;20380;-75
2022/08/09 06:38:04;;;;;;;8.75;3.20;;;19.60;90.30;;;;;;5054951;28;20040;-75
2022/08/09 06:40:30;;;;;;;6.47;3.53;;;19.70;90.10;;;;;;5054828;28;20064;-75
2022/08/09 06:42:56;;;;;;;7.97;3.42;;;19.70;89.90;;;;;;5054590;28;20602;-75
2022/08/09 06:45:22;;;;;;;5.47;3.03;;;19.70;90.00;;;;;;5054591;28;20465;-75
2022/08/09 06:47:48;;;;;;;4.68;2.83;;;19.80;89.90;;;;;;5054381;28;20035;-75
2022/08/09 06:50:15;;;;;;;7.10;2.92;;;19.90;90.20;;;;;;5054795;28;20028;-75
2022/08/09 06:52:44;;;;;;;5.35;2.35;;;20.00;89.70;;;;;;5054582;28;20029;-75
2022/08/09 06:55:14;;;;;;;7.38;2.45;;;20.00;89.40;;;;;;5054434;28;20361;-75
2022/08/09 06:57:40;;;;;;;4.75;1.75;;;20.10;89.30;;;;;;5053575;28;20102;-75
2022/08/09 07:00:07;;;;;;;3.85;1.58;;;20.30;89.10;;;;;;5054445;28;20048;-75
2022/08/09 07:02:33;;;;;;;4.63;2.30;;;20.40;89.00;;;;;;5054091;28;20025;-75
2022/08/09 07:05:00;;;;;;;5.03;1.98;;;20.50;88.00;;;;;;5054210;28;20111;-75
2022/08/09 07:07:26;;;;;;;6.82;1.88;;;20.60;87.40;;;;;;5054217;28;20032;-75
2022/08/09 07:09:51;;;;;;;6.82;2.08;;;20.50;87.50;;;;;;5054580;28;20040;-75
2022/08/09 07:12:17;;;;;;;5.05;1.90;;;20.60;87.80;;;;;;5054441;28;20029;-75
2022/08/09 07:14:42;;;;;;;3.88;2.15;;;20.60;87.00;;;;;;5054110;28;20060;-75
2022/08/09 07:17:08;;;;;;;4.47;1.65;;;20.70;86.70;;;;;;5054131;28;20021;-75
2022/08/09 07:19:34;;;;;;;5.40;1.40;;;20.70;86.80;;;;;;5053976;28;20051;-75
2022/08/09 07:21:59;;;;;;;6.82;1.35;;;20.70;86.80;;;;;;5054083;28;20025;-75
2022/08/09 07:24:27;;;;;;;3.95;1.20;;;20.80;86.20;;;;;;5053578;28;20063;-75
2022/08/09 07:26:52;;;;;;;4.22;1.45;;;20.80;86.20;;;;;;5054040;28;20119;-75
2022/08/09 07:29:18;;;;;;;5.28;1.17;;;20.90;85.80;;;;;;5053852;28;20037;-75
2022/08/09 07:31:43;;;;;;;5.25;1.30;;;21.00;85.20;;;;;;5053713;28;20357;-75
2022/08/09 07:34:09;;;;;;;6.30;1.10;;;21.00;85.60;;;;;;5053909;28;20025;-75
2022/08/09 07:36:35;;;;;;;3.33;0.98;;;21.20;85.30;;;;;;5053567;28;20082;-75
2022/08/09 07:39:01;;;;;;;3.83;0.70;;;21.30;84.00;;;;;;5053655;28;20017;-75
2022/08/09 07:41:27;;;;;;;3.45;0.80;;;21.30;83.70;;;;;;5053665;28;20028;-75
2022/08/09 07:43:53;;;;;;;5.57;0.60;;;21.40;83.70;;;;;;5054015;28;20032;-75
2022/08/09 07:46:19;;;;;;;3.53;0.68;;;21.60;83.90;;;;;;5053861;28;20029;-75
2022/08/09 07:48:44;;;;;;;2.58;0.85;;;21.60;82.80;;;;;;5053539;28;20045;-75
2022/08/09 07:51:10;;;;;;;1.73;0.45;;;21.60;82.40;;;;;;5053714;28;20047;-76
2022/08/09 07:53:37;;;;;;;3.22;0.63;;;21.70;83.30;;;;;;5053523;28;20465;-76
2022/08/09 07:56:03;;;;;;;2.88;0.50;;;21.90;82.60;;;;;;5053272;28;20025;-76
2022/08/09 07:58:28;;;;;;;1.80;0.40;;;22.00;81.60;;;;;;5053392;28;20039;-75
2022/08/09 08:00:54;;;;;;;2.10;0.40;;;22.10;82.20;;;;;;5053626;28;20014;-76
2022/08/09 08:03:19;;;;;;;2.67;0.70;;;22.30;79.30;;;;;;5053748;28;20399;-76
2022/08/09 08:05:46;;;;;;;2.83;0.68;;;22.40;79.40;;;;;;5053242;28;20112;-76
2022/08/09 08:08:12;;;;;;;1.30;0.32;;;22.50;78.90;;;;;;5053285;28;20033;-76
2022/08/09 08:10:38;;;;;;;3.65;0.38;;;22.70;78.10;;;;;;5053322;28;20108;-76
2022/08/09 08:13:03;;;;;;;2.78;0.50;;;22.80;77.80;;;;;;5052989;28;20077;-76
2022/08/09 08:15:29;;;;;;;2.25;0.50;;;22.90;75.50;;;;;;5052971;28;20107;-76
2022/08/09 08:17:55;;;;;;;2.70;0.47;;;22.90;74.00;;;;;;5053440;28;20021;-76
2022/08/09 08:20:22;;;;;;;1.10;0.20;;;23.00;73.10;;;;;;5053137;28;20056;-76
2022/08/09 08:22:48;;;;;;;2.60;0.30;;;23.00;72.70;;;;;;5053116;28;20025;-75
2022/08/09 08:25:14;;;;;;;2.33;0.30;;;23.00;71.90;;;;;;5052829;28;20052;-75
2022/08/09 08:27:40;;;;;;;3.85;0.32;;;23.10;72.30;;;;;;5053121;28;20032;-75
2022/08/09 08:30:06;;;;;;;1.27;0.30;;;23.20;72.60;;;;;;5053043;28;20481;-75
2022/08/09 08:32:32;;;;;;;2.28;0.30;;;23.30;72.20;;;;;;5053120;28;20036;-75
2022/08/09 08:34:58;;;;;;;2.97;0.30;;;23.40;71.70;;;;;;5052787;28;20033;-75
2022/08/09 08:37:24;;;;;;;2.58;0.30;;;23.40;71.10;;;;;;5053001;28;20017;-75
2022/08/09 08:39:50;;;;;;;1.58;0.40;;;23.50;70.10;;;;;;5052888;28;20029;-75
2022/08/09 08:42:15;;;;;;;2.38;0.30;;;23.70;69.50;;;;;;5052713;28;20392;-75
2022/08/09 08:44:42;;;;;;;1.50;0.20;;;23.70;68.10;;;;;;5052774;28;20029;-75
2022/08/09 08:47:11;;;;;;;3.15;0.30;;;23.80;68.00;;;;;;5052854;28;20072;-75
2022/08/09 08:49:37;;;;;;;2.03;0.15;;;23.90;67.80;;;;;;5052842;28;20029;-76
2022/08/09 08:52:03;;;;;;;1.75;0.38;;;23.90;67.10;;;;;;5052671;28;20025;-75
2022/08/09 08:54:29;;;;;;;2.22;0.40;;;23.90;67.90;;;;;;5052489;28;20032;-75
2022/08/09 08:56:55;;;;;;;2.03;0.30;;;23.90;68.00;;;;;;5052863;28;20377;-75
2022/08/09 08:59:21;;;;;;;4.03;0.40;;;24.10;67.60;;;;;;5053018;28;20032;-76
2022/08/09 09:01:50;;;;;;;1.40;0.30;;;24.00;67.30;;;;;;5052820;28;20100;-75
2022/08/09 09:04:18;;;;;;;1.27;0.20;;;24.10;67.40;;;;;;5052580;28;20033;-76
2022/08/09 09:06:47;;;;;;;0.95;0.10;;;24.10;65.70;;;;;;5052415;28;20028;-76
2022/08/09 09:09:14;;;;;;;1.45;0.20;;;24.20;66.80;;;;;;5052774;28;20058;-76
2022/08/09 09:11:41;;;;;;;1.80;0.20;;;24.40;66.00;;;;;;5052215;28;20017;-76
2022/08/09 09:14:16;;;;;;;2.00;0.30;;;24.60;65.30;;;;;;5052671;28;20033;-76
2022/08/09 09:16:42;;;;;;;1.55;0.22;;;24.70;64.40;;;;;;5052462;28;20022;-76
2022/08/09 09:19:10;;;;;;;0.98;0.40;;;24.80;65.10;;;;;;5052675;28;20028;-76
2022/08/09 09:21:36;;;;;;;1.38;0.20;;;24.90;65.60;;;;;;5053779;28;20056;-76
2022/08/09 09:24:06;;;;;;;1.15;0.20;;;24.90;64.40;;;;;;5055905;28;20045;-76
2022/08/09 09:26:33;;;;;;;1.65;0.50;;;25.00;64.40;;;;;;5056411;28;20056;-76
2022/08/09 09:29:01;;;;;;;1.65;0.40;;;25.00;64.30;;;;;;5055959;28;20056;-76
2022/08/09 09:31:27;;;;;;;2.63;0.25;;;25.10;63.00;;;;;;5056255;28;20029;-76
2022/08/09 09:34:10;;;;;;;0.90;0.20;;;25.10;63.30;;;;;;5055712;28;20039;-76
2022/08/09 09:36:40;;;;;;;1.05;0.20;;;25.20;64.00;;;;;;5055995;28;20021;-76
2022/08/09 09:39:08;;;;;;;1.55;0.20;;;25.30;62.70;;;;;;5055809;28;20032;-76
2022/08/09 09:41:34;;;;;;;1.90;0.28;;;25.40;63.40;;;;;;5056153;28;20017;-76
2022/08/09 09:44:03;;;;;;;5.07;0.45;;;25.50;63.60;;;;;;5055640;28;20028;-77
2022/08/09 09:46:34;;;;;;;2.22;0.30;;;25.70;62.70;;;;;;5056141;28;20035;-76
2022/08/09 09:49:06;;;;;;;1.83;0.15;;;25.80;62.60;;;;;;5055854;28;20108;-76
2022/08/09 09:51:33;;;;;;;1.67;0.40;;;25.90;60.40;;;;;;5055901;28;20025;-76
2022/08/09 09:54:10;;;;;;;1.17;0.10;;;26.00;61.00;;;;;;5055875;28;20114;-76
2022/08/09 09:56:38;;;;;;;0.98;0.10;;;26.00;59.80;;;;;;5055970;28;20021;-76
2022/08/09 09:59:03;;;;;;;0.73;0.20;;;25.90;60.20;;;;;;5055500;28;20021;-77
2022/08/09 10:01:30;;;;;;;1.20;0.35;;;26.00;60.60;;;;;;5055419;28;20029;-76
2022/08/09 10:03:56;;;;;;;2.65;0.10;;;26.10;59.90;;;;;;5055480;28;20067;-76
2022/08/09 10:06:23;;;;;;;1.15;0.20;;;26.10;60.20;;;;;;5055749;28;20036;-76
2022/08/09 10:08:52;;;;;;;6.07;0.32;;;26.00;60.60;;;;;;5055071;28;20438;-76
2022/08/09 10:11:23;;;;;;;0.73;0.10;;;25.90;61.00;;;;;;5055556;28;20029;-76
2022/08/09 10:13:50;;;;;;;2.97;0.22;;;26.00;60.50;;;;;;5055667;28;20040;-76
2022/08/09 10:16:35;;;;;;;1.58;0.43;;;26.00;60.60;;;;;;5055580;28;20029;-77
2022/08/09 10:19:05;;;;;;;0.75;0.10;;;26.10;60.80;;;;;;5055439;28;20033;-76
2022/08/09 10:21:32;;;;;;;1.35;0.20;;;26.20;59.70;;;;;;5055277;28;20029;-77
2022/08/09 10:24:03;;;;;;;1.70;0.20;;;26.40;59.80;;;;;;5054820;28;20051;-76
2022/08/09 10:26:29;;;;;;;2.60;0.10;;;26.50;58.90;;;;;;5054970;28;20488;-76
2022/08/09 10:28:56;;;;;;;3.47;0.20;;;26.70;58.60;;;;;;5054967;28;20087;-76
2022/08/09 10:31:22;;;;;;;1.38;0.20;;;26.90;58.70;;;;;;5055197;28;20047;-76
2022/08/09 10:33:48;;;;;;;1.92;0.17;;;27.00;57.90;;;;;;5055063;28;20024;-76
2022/08/09 10:36:15;;;;;;;1.67;0.20;;;27.00;56.20;;;;;;5055048;28;20021;-76
2022/08/09 10:38:45;;;;;;;1.15;0.25;;;27.00;56.40;;;;;;5054496;28;20468;-76
2022/08/09 10:41:14;;;;;;;1.15;0.17;;;27.10;56.60;;;;;;5054651;28;20068;-76
2022/08/09 10:43:46;;;;;;;0.85;0.20;;;27.20;56.20;;;;;;5054963;28;20029;-76
2022/08/09 10:46:23;;;;;;;;;;;27.20;56.90;;;;;;5055184;28;20036;-76
2022/08/09 10:48:58;;;;;;;1.33;0.10;;;27.20;55.20;;;;;;5054060;28;20474;-76
2022/08/09 10:51:41;;;;;;;0.90;0.10;;;27.20;56.60;;;;;;5054365;28;20028;-76
2022/08/09 10:54:09;;;;;;;3.58;0.20;;;27.10;56.90;;;;;;5054785;28;20040;-76
2022/08/09 10:56:40;;;;;;;0.57;0.10;;;26.90;56.00;;;;;;5054605;28;20021;-76
2022/08/09 10:59:24;;;;;;;4.47;0.20;;;27.00;56.50;;;;;;5054138;28;20029;-76
2022/08/09 11:01:51;;;;;;;0.75;0.30;;;27.10;56.10;;;;;;5054019;28;20100;-76
2022/08/09 11:04:25;;;;;;;0.85;0.10;;;27.20;55.60;;;;;;5054475;28;20025;-77
2022/08/09 11:06:57;;;;;;;3.03;0.20;;;27.20;55.70;;;;;;5054097;28;20033;-77
2022/08/09 11:09:43;;;;;;;2.45;0.10;;;27.40;55.80;;;;;;5054018;28;20033;-77
2022/08/09 11:12:13;;;;;;;1.92;0.15;;;27.50;54.20;;;;;;5053969;28;20040;-77
2022/08/09 11:14:53;;;;;;;1.50;0.10;;;27.40;54.30;;;;;;5053911;28;20488;-77
2022/08/09 11:17:19;;;;;;;1.45;0.10;;;27.40;55.10;;;;;;5054138;28;20048;-76
2022/08/09 11:20:08;;;;;;;1.88;0.10;;;27.60;55.10;;;;;;5054151;28;20049;-76
2022/08/09 11:22:40;;;;;;;2.28;0.20;;;27.80;54.40;;;;;;5053724;28;20087;-77
2022/08/09 11:25:08;;;;;;;2.70;0.20;;;27.90;54.00;;;;;;5053744;28;20060;-77
2022/08/09 11:27:44;;;;;;;1.15;0.10;;;28.00;54.10;;;;;;5053886;28;20029;-77
2022/08/09 11:30:11;;;;;;;0.85;0.10;;;28.00;53.60;;;;;;5053908;28;20025;-77
2022/08/09 11:32:57;;;;;;;1.15;0.10;;;28.10;54.50;;;;;;5054014;28;20114;-77
2022/08/09 11:35:35;;;;;;;2.20;0.22;;;28.10;54.00;;;;;;5053916;28;20091;-77
2022/08/09 11:38:14;;;;;;;1.55;0.20;;;28.30;53.70;;;;;;5053986;28;20013;-77
2022/08/09 11:40:39;;;;;;;0.70;0.10;;;28.20;52.20;;;;;;5053800;28;20025;-77
2022/08/09 11:43:06;;;;;;;1.45;0.10;;;28.30;52.40;;;;;;5053754;28;20013;-77
2022/08/09 11:45:41;;;;;;;0.77;0.10;;;28.50;53.40;;;;;;5052912;28;20025;-76
2022/08/09 11:48:10;;;;;;;1.98;0.10;;;28.60;52.90;;;;;;5053410;28;20504;-77
2022/08/09 11:50:57;;;;;;;1.00;0.10;;;28.60;51.00;;;;;;5053859;28;20025;-77
2022/08/09 11:53:24;;;;;;;1.58;0.17;;;28.50;51.60;;;;;;5053263;28;20020;-77
2022/08/09 11:55:52;;;;;;;3.08;0.10;;;28.60;52.50;;;;;;5053724;28;20029;-77
2022/08/09 11:58:17;;;;;;;2.05;0.10;;;28.60;52.60;;;;;;5053297;28;20033;-77
2022/08/09 12:01:05;;;;;;;1.42;0.20;;;28.80;53.00;;;;;;5053690;28;20082;-77
2022/08/09 12:03:30;;;;;;;1.63;0.13;;;28.80;52.20;;;;;;5053080;28;20040;-77
2022/08/09 12:05:58;;;;;;;0.73;0.10;;;28.90;51.70;;;;;;5053149;28;20021;-77
2022/08/09 12:08:26;;;;;;;0.80;0.10;;;29.00;52.20;;;;;;5053071;28;20029;-77
2022/08/09 12:10:58;;;;;;;0.85;0.10;;;29.20;50.80;;;;;;5053067;28;20025;-77
2022/08/09 12:13:32;;;;;;;0.28;0.05;;;29.20;50.20;;;;;;5053356;28;20035;-76
2022/08/09 12:16:02;;;;;;;0.85;0.15;;;29.30;50.00;;;;;;5053355;28;20024;-77
2022/08/09 12:18:28;;;;;;;0.40;0.08;;;29.30;49.30;;;;;;5053293;28;20025;-77
2022/08/09 12:20:54;;;;;;;1.20;0.10;;;29.20;49.40;;;;;;5053332;28;20025;-77
2022/08/09 12:23:20;;;;;;;2.60;0.10;;;29.20;48.90;;;;;;5053153;28;20025;-76
2022/08/09 12:25:48;;;;;;;1.02;0.10;;;29.30;48.20;;;;;;5053262;28;20116;-77
2022/08/09 12:28:17;;;;;;;1.70;0.10;;;29.30;48.30;;;;;;5053162;28;20094;-77
2022/08/09 12:30:43;;;;;;;1.33;0.10;;;29.30;49.00;;;;;;5052856;28;20097;-77
2022/08/09 12:33:10;;;;;;;2.17;0.15;;;29.30;49.70;;;;;;5052968;28;20108;-76
2022/08/09 12:35:37;;;;;;;2.95;0.10;;;29.50;50.10;;;;;;5052961;28;20021;-77
2022/08/09 12:38:28;;;;;;;2.03;0.28;;;29.60;49.80;;;;;;5052899;28;20060;-77
2022/08/09 12:40:55;;;;;;;1.60;0.10;;;29.70;49.20;;;;;;5053014;28;20033;-77
2022/08/09 12:43:25;;;;;;;2.58;0.10;;;29.70;49.50;;;;;;5052769;28;20071;-77
2022/08/09 12:45:53;;;;;;;0.93;0.10;;;29.70;48.90;;;;;;5052754;28;20490;-76
2022/08/09 12:48:19;;;;;;;2.05;0.13;;;29.70;48.90;;;;;;5052998;28;20025;-77
2022/08/09 12:50:46;;;;;;;1.42;0.08;;;29.70;47.20;;;;;;5052936;28;20029;-77
2022/08/09 12:53:26;;;;;;;2.40;0.20;;;29.90;47.20;;;;;;5052856;28;20099;-77